Labadieville, Louisiana
Current Conditions -  °F | °C
As of 4:55 PM on Thursday 20 Nov 2014 (Local Time) from KL38 Reporting Station
Clear Clear  
Wind Chill: 65°   Ceiling: Unl
Heat Index: 65°   Visibility: 10mi
Dew Point: 48°   Wind: 3mph
Humidity: 54%   Direction: 100°E
Pressure: 30.18"   Gusts: NA
Location:  29.84°N, 90.96°W
Report Text: KL38 202255Z AUTO 10003KT 10SM CLR 18/09 A3018 RMK AO2 T01810087
Loading
Personal Weather Stations






























Interactive Weather Map New forecast layout! Learn more

10-Day Weather Forecast

Advertisements
Track Severe Weather on mobile